sensor_id;sensor_type;location;lat;lon;timestamp;pressure;altitude;pressure_sealevel;temperature;humidity
30682;BME280;17439;48.092;11.842;2023-04-30T00:01:04;95560.69;;;14.35;58.14
30682;BME280;17439;48.092;11.842;2023-04-30T00:03:31;95567.72;;;14.36;58.39
30682;BME280;17439;48.092;11.842;2023-04-30T00:05:57;95565.00;;;14.36;58.41
30682;BME280;17439;48.092;11.842;2023-04-30T00:08:24;95563.44;;;14.35;58.44
30682;BME280;17439;48.092;11.842;2023-04-30T00:10:51;95569.66;;;14.36;58.51
30682;BME280;17439;48.092;11.842;2023-04-30T00:13:18;95565.34;;;14.34;58.74
30682;BME280;17439;48.092;11.842;2023-04-30T00:15:44;95570.47;;;14.36;58.65
30682;BME280;17439;48.092;11.842;2023-04-30T00:18:11;95565.00;;;14.36;58.92
30682;BME280;17439;48.092;11.842;2023-04-30T00:20:38;95567.72;;;14.36;58.90
30682;BME280;17439;48.092;11.842;2023-04-30T00:23:05;95567.72;;;14.36;58.90
30682;BME280;17439;48.092;11.842;2023-04-30T00:25:31;95566.63;;;14.37;59.09
30682;BME280;17439;48.092;11.842;2023-04-30T00:27:58;95573.66;;;14.38;58.95
30682;BME280;17439;48.092;11.842;2023-04-30T00:30:26;95570.13;;;14.38;58.84
30682;BME280;17439;48.092;11.842;2023-04-30T00:32:53;95574.47;;;14.39;58.89
30682;BME280;17439;48.092;11.842;2023-04-30T00:35:19;95565.50;;;14.38;58.71
30682;BME280;17439;48.092;11.842;2023-04-30T00:37:46;95567.41;;;14.38;58.80
30682;BME280;17439;48.092;11.842;2023-04-30T00:40:13;95562.28;;;14.36;58.56
30682;BME280;17439;48.092;11.842;2023-04-30T00:42:40;95559.09;;;14.34;58.73
30682;BME280;17439;48.092;11.842;2023-04-30T00:45:07;95559.41;;;14.32;58.73
30682;BME280;17439;48.092;11.842;2023-04-30T00:47:34;95567.16;;;14.30;58.67
30682;BME280;17439;48.092;11.842;2023-04-30T00:50:00;95563.13;;;14.28;58.97
30682;BME280;17439;48.092;11.842;2023-04-30T00:52:27;95573.25;;;14.27;58.94
30682;BME280;17439;48.092;11.842;2023-04-30T00:54:54;95565.41;;;14.26;58.99
30682;BME280;17439;48.092;11.842;2023-04-30T00:57:21;95573.91;;;14.24;58.94
30682;BME280;17439;48.092;11.842;2023-04-30T00:59:49;95569.91;;;14.22;58.94
30682;BME280;17439;48.092;11.842;2023-04-30T01:02:17;95572.97;;;14.20;59.27
30682;BME280;17439;48.092;11.842;2023-04-30T01:04:45;95574.13;;;14.19;59.30
30682;BME280;17439;48.092;11.842;2023-04-30T01:07:12;95577.19;;;14.18;59.30
30682;BME280;17439;48.092;11.842;2023-04-30T01:09:39;95574.44;;;14.18;59.19
30682;BME280;17439;48.092;11.842;2023-04-30T01:20:18;95586.69;;;14.11;59.58
30682;BME280;17439;48.092;11.842;2023-04-30T01:22:53;95587.34;;;14.08;59.95
30682;BME280;17439;48.092;11.842;2023-04-30T01:28:13;95585.25;;;14.05;59.77
30682;BME280;17439;48.092;11.842;2023-04-30T01:30:42;95588.00;;;14.05;59.73
30682;BME280;17439;48.092;11.842;2023-04-30T01:33:08;95587.53;;;14.03;59.93
30682;BME280;17439;48.092;11.842;2023-04-30T01:44:14;95596.19;;;13.96;60.18
30682;BME280;17439;48.092;11.842;2023-04-30T01:46:46;95596.19;;;13.96;60.14
30682;BME280;17439;48.092;11.842;2023-04-30T01:49:39;95606.63;;;13.94;60.20
30682;BME280;17439;48.092;11.842;2023-04-30T01:54:59;95605.53;;;13.95;60.02
30682;BME280;17439;48.092;11.842;2023-04-30T01:57:31;95608.72;;;13.97;60.17
30682;BME280;17439;48.092;11.842;2023-04-30T01:59:58;95604.38;;;13.96;60.08
30682;BME280;17439;48.092;11.842;2023-04-30T02:02:25;95598.13;;;13.96;59.93
30682;BME280;17439;48.092;11.842;2023-04-30T02:04:52;95599.75;;;13.97;60.00
30682;BME280;17439;48.092;11.842;2023-04-30T02:07:39;95597.66;;;13.94;60.38
30682;BME280;17439;48.092;11.842;2023-04-30T02:10:07;95601.66;;;13.96;60.12
30682;BME280;17439;48.092;11.842;2023-04-30T02:12:34;95602.78;;;13.95;60.00
30682;BME280;17439;48.092;11.842;2023-04-30T02:15:03;95608.25;;;13.95;59.98
30682;BME280;17439;48.092;11.842;2023-04-30T02:17:31;95603.91;;;13.94;59.82
30682;BME280;17439;48.092;11.842;2023-04-30T02:19:58;95611.63;;;13.92;60.20
30682;BME280;17439;48.092;11.842;2023-04-30T02:22:25;95596.72;;;13.90;59.95
30682;BME280;17439;48.092;11.842;2023-04-30T02:24:52;95592.41;;;13.89;60.03
30682;BME280;17439;48.092;11.842;2023-04-30T02:27:18;95598.31;;;13.91;59.78
30682;BME280;17439;48.092;11.842;2023-04-30T02:29:45;95598.97;;;13.88;59.73
30682;BME280;17439;48.092;11.842;2023-04-30T02:32:12;95597.25;;;13.83;59.66
30682;BME280;17439;48.092;11.842;2023-04-30T02:34:39;95606.06;;;13.80;59.94
30682;BME280;17439;48.092;11.842;2023-04-30T02:37:06;95608.66;;;13.76;59.87
30682;BME280;17439;48.092;11.842;2023-04-30T02:39:33;95611.56;;;13.71;60.09
30682;BME280;17439;48.092;11.842;2023-04-30T02:42:00;95609.97;;;13.70;59.84
30682;BME280;17439;48.092;11.842;2023-04-30T02:44:27;95614.94;;;13.68;59.95
30682;BME280;17439;48.092;11.842;2023-04-30T02:46:54;95614.44;;;13.66;59.82
30682;BME280;17439;48.092;11.842;2023-04-30T02:49:22;95610.78;;;13.62;59.74
30682;BME280;17439;48.092;11.842;2023-04-30T02:51:49;95618.81;;;13.58;59.81
30682;BME280;17439;48.092;11.842;2023-04-30T02:54:15;95620.91;;;13.53;59.93
30682;BME280;17439;48.092;11.842;2023-04-30T02:56:42;95608.28;;;13.48;60.19
30682;BME280;17439;48.092;11.842;2023-04-30T02:59:09;95611.66;;;13.45;60.42
30682;BME280;17439;48.092;11.842;2023-04-30T03:01:36;95613.09;;;13.42;60.44
30682;BME280;17439;48.092;11.842;2023-04-30T03:04:03;95608.00;;;13.41;60.46
30682;BME280;17439;48.092;11.842;2023-04-30T03:06:32;95608.63;;;13.38;60.79
30682;BME280;17439;48.092;11.842;2023-04-30T03:08:59;95608.13;;;13.36;60.81
30682;BME280;17439;48.092;11.842;2023-04-30T03:11:26;95621.75;;;13.36;60.72
30682;BME280;17439;48.092;11.842;2023-04-30T03:13:53;95623.69;;;13.35;60.73
30682;BME280;17439;48.092;11.842;2023-04-30T03:16:20;95624.81;;;13.34;60.74
30682;BME280;17439;48.092;11.842;2023-04-30T03:18:48;95619.69;;;13.33;60.79
30682;BME280;17439;48.092;11.842;2023-04-30T03:21:14;95613.13;;;13.34;60.61
30682;BME280;17439;48.092;11.842;2023-04-30T03:23:41;95614.22;;;13.33;60.55
30682;BME280;17439;48.092;11.842;2023-04-30T03:26:08;95613.72;;;13.31;60.67
30682;BME280;17439;48.092;11.842;2023-04-30T03:28:34;95615.16;;;13.28;60.80
30682;BME280;17439;48.092;11.842;2023-04-30T03:31:01;95611.97;;;13.26;60.80
30682;BME280;17439;48.092;11.842;2023-04-30T03:33:28;95610.38;;;13.25;60.73
30682;BME280;17439;48.092;11.842;2023-04-30T03:35:55;95605.59;;;13.22;60.72
30682;BME280;17439;48.092;11.842;2023-04-30T03:38:21;95618.72;;;13.20;60.82
30682;BME280;17439;48.092;11.842;2023-04-30T03:40:48;95606.25;;;13.19;60.68
30682;BME280;17439;48.092;11.842;2023-04-30T03:43:14;95605.28;;;13.15;60.91
30682;BME280;17439;48.092;11.842;2023-04-30T03:45:41;95601.78;;;13.14;60.76
30682;BME280;17439;48.092;11.842;2023-04-30T03:48:08;95600.94;;;13.14;60.70
30682;BME280;17439;48.092;11.842;2023-04-30T03:50:35;95602.28;;;13.07;60.48
30682;BME280;17439;48.092;11.842;2023-04-30T03:53:02;95598.59;;;13.03;60.72
30682;BME280;17439;48.092;11.842;2023-04-30T03:55:28;95601.63;;;13.02;60.56
30682;BME280;17439;48.092;11.842;2023-04-30T03:57:55;95600.50;;;12.94;60.45
30682;BME280;17439;48.092;11.842;2023-04-30T04:00:22;95596.84;;;12.90;60.43
30682;BME280;17439;48.092;11.842;2023-04-30T04:02:51;95597.00;;;12.85;60.53
30682;BME280;17439;48.092;11.842;2023-04-30T04:05:19;95601.50;;;12.81;60.51
30682;BME280;17439;48.092;11.842;2023-04-30T04:07:45;95601.97;;;12.74;60.57
30682;BME280;17439;48.092;11.842;2023-04-30T04:10:13;95602.44;;;12.67;60.69
30682;BME280;17439;48.092;11.842;2023-04-30T04:12:39;95599.88;;;12.62;60.72
30682;BME280;17439;48.092;11.842;2023-04-30T04:15:07;95603.25;;;12.59;60.94
30682;BME280;17439;48.092;11.842;2023-04-30T04:17:34;95613.00;;;12.51;61.20
30682;BME280;17439;48.092;11.842;2023-04-30T04:20:01;95607.09;;;12.49;61.42
30682;BME280;17439;48.092;11.842;2023-04-30T04:22:28;95610.44;;;12.46;61.71
30682;BME280;17439;48.092;11.842;2023-04-30T04:24:54;95610.44;;;12.46;61.89
30682;BME280;17439;48.092;11.842;2023-04-30T04:27:22;95613.47;;;12.45;61.98
30682;BME280;17439;48.092;11.842;2023-04-30T04:29:48;95614.28;;;12.45;62.12
30682;BME280;17439;48.092;11.842;2023-04-30T04:32:15;95616.66;;;12.47;62.25
30682;BME280;17439;48.092;11.842;2023-04-30T04:34:42;95621.00;;;12.48;62.64
30682;BME280;17439;48.092;11.842;2023-04-30T04:37:09;95631.25;;;12.51;62.81
30682;BME280;17439;48.092;11.842;2023-04-30T04:39:36;95627.88;;;12.54;62.94
30682;BME280;17439;48.092;11.842;2023-04-30T04:42:03;95633.16;;;12.59;62.94
30682;BME280;17439;48.092;11.842;2023-04-30T04:44:30;95634.13;;;12.63;63.08
30682;BME280;17439;48.092;11.842;2023-04-30T04:46:57;95637.97;;;12.71;63.20
30682;BME280;17439;48.092;11.842;2023-04-30T04:49:23;95634.78;;;12.78;63.11
30682;BME280;17439;48.092;11.842;2023-04-30T04:51:50;95630.78;;;12.84;63.08
30682;BME280;17439;48.092;11.842;2023-04-30T04:54:17;95636.53;;;12.91;62.78
30682;BME280;17439;48.092;11.842;2023-04-30T04:56:44;95632.53;;;12.97;62.68
30682;BME280;17439;48.092;11.842;2023-04-30T04:59:11;95634.75;;;13.04;62.39
30682;BME280;17439;48.092;11.842;2023-04-30T05:01:38;95631.06;;;13.09;62.30
30682;BME280;17439;48.092;11.842;2023-04-30T05:04:05;95633.28;;;13.15;62.03
30682;BME280;17439;48.092;11.842;2023-04-30T05:06:31;95638.91;;;13.19;61.99
30682;BME280;17439;48.092;11.842;2023-04-30T05:08:58;95634.72;;;13.21;62.17
30682;BME280;17439;48.092;11.842;2023-04-30T05:11:25;95632.16;;;13.25;62.33
30682;BME280;17439;48.092;11.842;2023-04-30T05:13:54;95635.84;;;13.29;62.28
30682;BME280;17439;48.092;11.842;2023-04-30T05:16:21;95641.13;;;13.34;62.32
30682;BME280;17439;48.092;11.842;2023-04-30T05:18:48;95638.25;;;13.39;62.30
30682;BME280;17439;48.092;11.842;2023-04-30T05:21:14;95640.81;;;13.45;62.06
30682;BME280;17439;48.092;11.842;2023-04-30T05:23:41;95650.41;;;13.51;61.84
30682;BME280;17439;48.092;11.842;2023-04-30T05:26:08;95647.50;;;13.56;61.61
30682;BME280;17439;48.092;11.842;2023-04-30T05:28:34;95653.88;;;13.60;61.56
30682;BME280;17439;48.092;11.842;2023-04-30T05:31:01;95646.22;;;13.62;61.45
30682;BME280;17439;48.092;11.842;2023-04-30T05:33:27;95655.31;;;13.66;61.63
30682;BME280;17439;48.092;11.842;2023-04-30T05:35:54;95652.09;;;13.73;61.72
30682;BME280;17439;48.092;11.842;2023-04-30T05:38:21;95657.38;;;13.78;61.10
30682;BME280;17439;48.092;11.842;2023-04-30T05:40:48;95651.28;;;13.81;61.05
30682;BME280;17439;48.092;11.842;2023-04-30T05:43:14;95651.75;;;13.83;61.03
30682;BME280;17439;48.092;11.842;2023-04-30T05:45:41;95650.56;;;13.93;59.69
30682;BME280;17439;48.092;11.842;2023-04-30T05:48:08;95657.63;;;13.94;59.89
30682;BME280;17439;48.092;11.842;2023-04-30T05:50:34;95656.81;;;13.93;60.34
30682;BME280;17439;48.092;11.842;2023-04-30T05:53:01;95659.69;;;13.97;60.40
30682;BME280;17439;48.092;11.842;2023-04-30T05:55:27;95652.78;;;14.00;60.30
30682;BME280;17439;48.092;11.842;2023-04-30T05:57:54;95656.78;;;14.02;60.53
30682;BME280;17439;48.092;11.842;2023-04-30T06:00:21;95651.47;;;14.06;60.63
30682;BME280;17439;48.092;11.842;2023-04-30T06:02:47;95649.03;;;14.13;60.11
30682;BME280;17439;48.092;11.842;2023-04-30T06:05:14;95653.50;;;14.18;60.30
30682;BME280;17439;48.092;11.842;2023-04-30T06:07:41;95648.97;;;14.22;60.22
30682;BME280;17439;48.092;11.842;2023-04-30T06:10:08;95646.88;;;14.27;60.06
30682;BME280;17439;48.092;11.842;2023-04-30T06:12:35;95651.94;;;14.38;59.31
30682;BME280;17439;48.092;11.842;2023-04-30T06:15:02;95650.16;;;14.42;59.50
30682;BME280;17439;48.092;11.842;2023-04-30T06:17:29;95655.88;;;14.49;59.42
30682;BME280;17439;48.092;11.842;2023-04-30T06:19:55;95655.38;;;14.56;59.47
30682;BME280;17439;48.092;11.842;2023-04-30T06:22:22;95647.81;;;14.61;59.45
30682;BME280;17439;48.092;11.842;2023-04-30T06:24:49;95648.88;;;14.69;59.31
30682;BME280;17439;48.092;11.842;2023-04-30T06:27:15;95651.41;;;14.74;59.25
30682;BME280;17439;48.092;11.842;2023-04-30T06:29:42;95650.09;;;14.80;59.32
30682;BME280;17439;48.092;11.842;2023-04-30T06:32:09;95641.69;;;14.85;58.64
30682;BME280;17439;48.092;11.842;2023-04-30T06:34:35;95641.97;;;14.93;58.58
30682;BME280;17439;48.092;11.842;2023-04-30T06:37:02;95636.63;;;14.96;58.58
30682;BME280;17439;48.092;11.842;2023-04-30T06:39:29;95636.41;;;15.01;58.08
30682;BME280;17439;48.092;11.842;2023-04-30T06:41:55;95634.63;;;15.05;57.51
30682;BME280;17439;48.092;11.842;2023-04-30T06:44:22;95637.97;;;15.11;56.75
30682;BME280;17439;48.092;11.842;2023-04-30T06:46:49;95635.69;;;15.13;57.20
30682;BME280;17439;48.092;11.842;2023-04-30T06:49:15;95634.19;;;15.16;56.88
30682;BME280;17439;48.092;11.842;2023-04-30T06:51:42;95639.00;;;15.19;56.89
30682;BME280;17439;48.092;11.842;2023-04-30T06:54:09;95646.31;;;15.27;55.08
30682;BME280;17439;48.092;11.842;2023-04-30T06:56:35;95638.13;;;15.27;55.26
30682;BME280;17439;48.092;11.842;2023-04-30T06:59:02;95647.00;;;15.24;55.61
30682;BME280;17439;48.092;11.842;2023-04-30T07:01:28;95641.19;;;15.26;55.99
30682;BME280;17439;48.092;11.842;2023-04-30T07:03:55;95638.47;;;15.26;56.22
30682;BME280;17439;48.092;11.842;2023-04-30T07:06:22;95636.84;;;15.24;56.09
30682;BME280;17439;48.092;11.842;2023-04-30T07:08:49;95640.88;;;15.27;56.59
30682;BME280;17439;48.092;11.842;2023-04-30T07:11:15;95631.53;;;15.28;56.69
30682;BME280;17439;48.092;11.842;2023-04-30T07:13:42;95634.84;;;15.34;57.30
30682;BME280;17439;48.092;11.842;2023-04-30T07:16:08;95640.00;;;15.48;56.44
30682;BME280;17439;48.092;11.842;2023-04-30T07:18:35;95642.31;;;15.58;56.31
30682;BME280;17439;48.092;11.842;2023-04-30T07:21:02;95635.25;;;15.69;56.28
30682;BME280;17439;48.092;11.842;2023-04-30T07:23:31;95627.13;;;15.82;55.42
30682;BME280;17439;48.092;11.842;2023-04-30T07:25:57;95632.94;;;15.92;55.74
30682;BME280;17439;48.092;11.842;2023-04-30T07:28:24;95634.53;;;16.06;53.48
30682;BME280;17439;48.092;11.842;2023-04-30T07:30:51;95642.06;;;16.09;54.13
30682;BME280;17439;48.092;11.842;2023-04-30T07:33:18;95639.09;;;16.14;54.47
30682;BME280;17439;48.092;11.842;2023-04-30T07:35:45;95638.16;;;16.22;53.97
30682;BME280;17439;48.092;11.842;2023-04-30T07:38:11;95636.03;;;16.28;54.43
30682;BME280;17439;48.092;11.842;2023-04-30T07:40:38;95642.50;;;16.36;54.53
30682;BME280;17439;48.092;11.842;2023-04-30T07:43:05;95631.91;;;16.46;53.31
30682;BME280;17439;48.092;11.842;2023-04-30T07:45:32;95634.72;;;16.62;51.65
30682;BME280;17439;48.092;11.842;2023-04-30T07:47:59;95634.25;;;16.73;50.95
30682;BME280;17439;48.092;11.842;2023-04-30T07:50:26;95635.38;;;16.72;51.65
30682;BME280;17439;48.092;11.842;2023-04-30T07:52:53;95631.50;;;16.73;51.90
30682;BME280;17439;48.092;11.842;2023-04-30T07:55:19;95633.78;;;16.71;52.35
30682;BME280;17439;48.092;11.842;2023-04-30T07:57:46;95632.53;;;16.68;52.93
30682;BME280;17439;48.092;11.842;2023-04-30T08:00:13;95629.00;;;16.67;53.45
30682;BME280;17439;48.092;11.842;2023-04-30T08:02:39;95634.00;;;16.78;51.60
30682;BME280;17439;48.092;11.842;2023-04-30T08:05:06;95636.38;;;16.79;52.49
30682;BME280;17439;48.092;11.842;2023-04-30T08:07:33;95636.38;;;16.79;52.00
30682;BME280;17439;48.092;11.842;2023-04-30T08:10:00;95629.09;;;16.83;51.83
30682;BME280;17439;48.092;11.842;2023-04-30T08:12:26;95637.88;;;16.89;51.14
30682;BME280;17439;48.092;11.842;2023-04-30T08:15:01;95631.25;;;16.90;51.29
30682;BME280;17439;48.092;11.842;2023-04-30T08:17:27;95625.88;;;16.94;53.13
30682;BME280;17439;48.092;11.842;2023-04-30T08:19:54;95635.53;;;17.03;52.03
30682;BME280;17439;48.092;11.842;2023-04-30T08:22:22;95625.69;;;17.15;50.81
30682;BME280;17439;48.092;11.842;2023-04-30T08:24:48;95628.53;;;17.18;50.39
30682;BME280;17439;48.092;11.842;2023-04-30T08:27:15;95628.28;;;17.23;50.35
30682;BME280;17439;48.092;11.842;2023-04-30T08:29:42;95628.28;;;17.23;50.60
30682;BME280;17439;48.092;11.842;2023-04-30T08:32:09;95616.53;;;17.23;51.27
30682;BME280;17439;48.092;11.842;2023-04-30T08:34:36;95626.66;;;17.22;51.74
30682;BME280;17439;48.092;11.842;2023-04-30T08:37:02;95623.34;;;17.29;51.18
30682;BME280;17439;48.092;11.842;2023-04-30T08:39:29;95618.06;;;17.36;49.33
30682;BME280;17439;48.092;11.842;2023-04-30T08:42:01;95631.06;;;17.39;50.28
30682;BME280;17439;48.092;11.842;2023-04-30T08:44:28;95624.44;;;17.40;50.06
30682;BME280;17439;48.092;11.842;2023-04-30T08:46:56;95627.97;;;17.41;49.71
30682;BME280;17439;48.092;11.842;2023-04-30T08:49:23;95633.09;;;17.43;50.03
30682;BME280;17439;48.092;11.842;2023-04-30T08:51:50;95633.53;;;17.45;49.88
30682;BME280;17439;48.092;11.842;2023-04-30T08:54:17;95638.31;;;17.48;49.80
30682;BME280;17439;48.092;11.842;2023-04-30T08:56:44;95631.25;;;17.47;50.22
30682;BME280;17439;48.092;11.842;2023-04-30T08:59:12;95632.84;;;17.48;50.34
30682;BME280;17439;48.092;11.842;2023-04-30T09:01:40;95635.94;;;17.46;50.31
30682;BME280;17439;48.092;11.842;2023-04-30T09:04:07;95637.19;;;17.49;49.90
30682;BME280;17439;48.092;11.842;2023-04-30T09:06:34;95639.75;;;17.57;48.63
30682;BME280;17439;48.092;11.842;2023-04-30T09:09:14;95631.16;;;17.59;49.92
30682;BME280;17439;48.092;11.842;2023-04-30T09:11:41;95636.50;;;17.68;50.26
30682;BME280;17439;48.092;11.842;2023-04-30T09:14:08;95635.19;;;17.77;49.30
30682;BME280;17439;48.092;11.842;2023-04-30T09:16:48;95628.06;;;17.89;49.49
30682;BME280;17439;48.092;11.842;2023-04-30T09:19:22;95631.56;;;17.89;47.54
30682;BME280;17439;48.092;11.842;2023-04-30T09:21:49;95624.88;;;18.03;48.54
30682;BME280;17439;48.092;11.842;2023-04-30T09:24:15;95641.31;;;18.19;48.57
30682;BME280;17439;48.092;11.842;2023-04-30T09:26:45;95632.19;;;18.30;47.44
30682;BME280;17439;48.092;11.842;2023-04-30T09:29:11;95635.47;;;18.36;48.15
30682;BME280;17439;48.092;11.842;2023-04-30T09:31:42;95637.28;;;18.48;46.83
30682;BME280;17439;48.092;11.842;2023-04-30T09:34:09;95635.50;;;18.56;47.39
30682;BME280;17439;48.092;11.842;2023-04-30T09:36:36;95628.94;;;18.60;47.14
30682;BME280;17439;48.092;11.842;2023-04-30T09:39:06;95632.94;;;18.63;46.61
30682;BME280;17439;48.092;11.842;2023-04-30T09:41:36;95625.56;;;18.67;47.79
30682;BME280;17439;48.092;11.842;2023-04-30T09:44:03;95628.00;;;18.72;47.35
30682;BME280;17439;48.092;11.842;2023-04-30T09:46:32;95620.22;;;18.74;47.80
30682;BME280;17439;48.092;11.842;2023-04-30T09:49:01;95623.47;;;18.80;48.25
30682;BME280;17439;48.092;11.842;2023-04-30T09:51:28;95636.69;;;18.90;47.29
30682;BME280;17439;48.092;11.842;2023-04-30T09:53:55;95627.13;;;19.03;45.04
30682;BME280;17439;48.092;11.842;2023-04-30T09:56:25;95625.19;;;19.04;45.32
30682;BME280;17439;48.092;11.842;2023-04-30T09:58:54;95636.31;;;19.11;44.80
30682;BME280;17439;48.092;11.842;2023-04-30T10:01:25;95632.44;;;19.12;44.93
30682;BME280;17439;48.092;11.842;2023-04-30T10:03:52;95632.69;;;19.07;45.36
30682;BME280;17439;48.092;11.842;2023-04-30T10:06:20;95626.00;;;19.05;44.54
30682;BME280;17439;48.092;11.842;2023-04-30T10:08:50;95628.56;;;18.97;44.57
30682;BME280;17439;48.092;11.842;2023-04-30T10:11:20;95621.88;;;18.95;44.25
30682;BME280;17439;48.092;11.842;2023-04-30T10:13:59;95620.69;;;18.96;43.75
30682;BME280;17439;48.092;11.842;2023-04-30T10:16:53;95629.16;;;18.87;44.16
30682;BME280;17439;48.092;11.842;2023-04-30T10:19:24;95617.97;;;18.80;44.09
30682;BME280;17439;48.092;11.842;2023-04-30T10:21:51;95610.03;;;18.75;43.92
30682;BME280;17439;48.092;11.842;2023-04-30T10:24:19;95615.09;;;18.73;44.27
30682;BME280;17439;48.092;11.842;2023-04-30T10:26:47;95607.94;;;18.68;45.07
30682;BME280;17439;48.092;11.842;2023-04-30T10:29:17;95606.50;;;18.74;44.21
30682;BME280;17439;48.092;11.842;2023-04-30T10:31:47;95609.69;;;18.76;44.54
30682;BME280;17439;48.092;11.842;2023-04-30T10:34:40;95606.16;;;18.76;45.76
30682;BME280;17439;48.092;11.842;2023-04-30T10:37:35;95589.78;;;18.83;46.64
30682;BME280;17439;48.092;11.842;2023-04-30T10:40:06;95593.88;;;18.89;45.93
30682;BME280;17439;48.092;11.842;2023-04-30T10:42:33;95606.69;;;19.01;46.10
30682;BME280;17439;48.092;11.842;2023-04-30T10:45:01;95595.53;;;19.13;45.96
30682;BME280;17439;48.092;11.842;2023-04-30T10:47:28;95582.22;;;19.35;43.37
30682;BME280;17439;48.092;11.842;2023-04-30T10:50:08;95586.25;;;19.41;43.95
30682;BME280;17439;48.092;11.842;2023-04-30T10:52:36;95584.91;;;19.54;44.06
30682;BME280;17439;48.092;11.842;2023-04-30T10:55:03;95587.66;;;19.54;46.20
30682;BME280;17439;48.092;11.842;2023-04-30T10:57:30;95580.91;;;19.71;45.31
30682;BME280;17439;48.092;11.842;2023-04-30T11:02:39;95579.44;;;20.01;45.21
30682;BME280;17439;48.092;11.842;2023-04-30T11:07:33;95570.88;;;20.33;42.13
30682;BME280;17439;48.092;11.842;2023-04-30T11:10:00;95565.53;;;20.43;42.22
30682;BME280;17439;48.092;11.842;2023-04-30T11:12:27;95564.06;;;20.80;37.78
30682;BME280;17439;48.092;11.842;2023-04-30T11:15:04;95561.28;;;20.76;40.17
30682;BME280;17439;48.092;11.842;2023-04-30T11:17:32;95555.25;;;20.67;40.72
30682;BME280;17439;48.092;11.842;2023-04-30T11:19:59;95544.06;;;20.56;40.26
30682;BME280;17439;48.092;11.842;2023-04-30T11:22:27;95547.38;;;20.65;38.18
30682;BME280;17439;48.092;11.842;2023-04-30T11:25:07;95544.44;;;20.55;38.95
30682;BME280;17439;48.092;11.842;2023-04-30T11:27:36;95546.66;;;20.72;37.16
30682;BME280;17439;48.092;11.842;2023-04-30T11:30:09;95537.75;;;20.52;37.84
30682;BME280;17439;48.092;11.842;2023-04-30T11:32:37;95554.16;;;20.45;38.78
30682;BME280;17439;48.092;11.842;2023-04-30T11:35:05;95558.44;;;20.42;38.70
30682;BME280;17439;48.092;11.842;2023-04-30T11:37:32;95554.06;;;20.38;39.38
30682;BME280;17439;48.092;11.842;2023-04-30T11:40:01;95544.25;;;20.40;38.99
30682;BME280;17439;48.092;11.842;2023-04-30T11:42:29;95535.25;;;20.43;40.11
30682;BME280;17439;48.092;11.842;2023-04-30T11:45:10;95534.09;;;20.44;37.20
30682;BME280;17439;48.092;11.842;2023-04-30T11:47:44;95545.66;;;20.57;39.27
30682;BME280;17439;48.092;11.842;2023-04-30T11:50:25;95538.97;;;20.58;39.08
30682;BME280;17439;48.092;11.842;2023-04-30T11:52:53;95538.72;;;20.67;38.89
30682;BME280;17439;48.092;11.842;2023-04-30T11:55:22;95542.72;;;20.70;38.93
30682;BME280;17439;48.092;11.842;2023-04-30T11:57:53;95539.53;;;20.68;38.18
30682;BME280;17439;48.092;11.842;2023-04-30T12:00:25;95527.78;;;20.74;37.18
30682;BME280;17439;48.092;11.842;2023-04-30T12:02:52;95534.16;;;20.78;37.31
30682;BME280;17439;48.092;11.842;2023-04-30T12:05:21;95528.63;;;20.78;37.88
30682;BME280;17439;48.092;11.842;2023-04-30T12:07:49;95535.03;;;20.86;37.07
30682;BME280;17439;48.092;11.842;2023-04-30T12:10:19;95540.03;;;20.77;37.44
30682;BME280;17439;48.092;11.842;2023-04-30T12:12:47;95538.22;;;20.92;35.96
30682;BME280;17439;48.092;11.842;2023-04-30T12:15:19;95523.44;;;21.04;35.46
30682;BME280;17439;48.092;11.842;2023-04-30T12:17:46;95524.25;;;21.08;36.09
30682;BME280;17439;48.092;11.842;2023-04-30T12:20:14;95522.16;;;20.97;36.62
30682;BME280;17439;48.092;11.842;2023-04-30T12:22:41;95528.69;;;20.82;37.24
30682;BME280;17439;48.092;11.842;2023-04-30T12:25:15;95526.28;;;20.80;37.03
30682;BME280;17439;48.092;11.842;2023-04-30T12:27:51;95524.72;;;20.79;36.06
30682;BME280;17439;48.092;11.842;2023-04-30T12:30:20;95535.69;;;20.76;36.50
30682;BME280;17439;48.092;11.842;2023-04-30T12:32:52;95528.03;;;20.62;36.41
30682;BME280;17439;48.092;11.842;2023-04-30T12:35:20;95527.03;;;20.47;37.63
30682;BME280;17439;48.092;11.842;2023-04-30T12:37:49;95528.22;;;20.46;36.77
30682;BME280;17439;48.092;11.842;2023-04-30T12:40:17;95525.38;;;20.42;37.12
30682;BME280;17439;48.092;11.842;2023-04-30T12:42:45;95523.44;;;20.43;37.07
30682;BME280;17439;48.092;11.842;2023-04-30T12:45:12;95522.19;;;20.37;37.83
30682;BME280;17439;48.092;11.842;2023-04-30T12:47:59;95517.47;;;20.37;37.45
30682;BME280;17439;48.092;11.842;2023-04-30T12:50:25;95517.81;;;20.36;38.19
30682;BME280;17439;48.092;11.842;2023-04-30T12:52:52;95512.75;;;20.38;37.39
30682;BME280;17439;48.092;11.842;2023-04-30T12:55:20;95514.75;;;20.41;37.18
30682;BME280;17439;48.092;11.842;2023-04-30T13:00:47;95511.88;;;20.60;36.36
30682;BME280;17439;48.092;11.842;2023-04-30T13:03:18;95497.00;;;20.65;35.78
30682;BME280;17439;48.092;11.842;2023-04-30T13:05:48;95500.00;;;20.56;35.92
30682;BME280;17439;48.092;11.842;2023-04-30T13:08:16;95495.63;;;20.52;35.69
30682;BME280;17439;48.092;11.842;2023-04-30T13:10:43;95487.22;;;20.41;36.22
30682;BME280;17439;48.092;11.842;2023-04-30T13:13:11;95492.28;;;20.35;36.02
30682;BME280;17439;48.092;11.842;2023-04-30T13:15:38;95494.13;;;20.27;36.06
30682;BME280;17439;48.092;11.842;2023-04-30T13:18:06;95486.94;;;20.19;36.43
30682;BME280;17439;48.092;11.842;2023-04-30T13:20:36;95489.31;;;20.21;36.36
30682;BME280;17439;48.092;11.842;2023-04-30T13:23:06;95477.75;;;20.08;37.00
30682;BME280;17439;48.092;11.842;2023-04-30T13:25:34;95487.06;;;20.00;38.07